sensor_id;sensor_type;location;lat;lon;timestamp;pressure;altitude;pressure_sealevel;temperature;humidity
6136;BME280;24008;42.664;23.372;2023-06-10T00:00:47;94334.38;;;16.92;100.00
6136;BME280;24008;42.664;23.372;2023-06-10T00:03:14;94368.47;;;17.16;100.00
6136;BME280;24008;42.664;23.372;2023-06-10T00:05:41;94341.94;;;16.94;100.00
6136;BME280;24008;42.664;23.372;2023-06-10T00:08:07;94288.47;;;16.60;100.00
6136;BME280;24008;42.664;23.372;2023-06-10T00:10:36;94364.28;;;17.08;100.00
6136;BME280;24008;42.664;23.372;2023-06-10T00:13:04;94365.06;;;17.02;100.00
6136;BME280;24008;42.664;23.372;2023-06-10T00:15:35;94345.84;;;16.83;100.00
6136;BME280;24008;42.664;23.372;2023-06-10T00:18:02;94373.91;;;16.93;100.00
6136;BME280;24008;42.664;23.372;2023-06-10T00:20:29;94368.53;;;16.88;100.00
6136;BME280;24008;42.664;23.372;2023-06-10T00:22:56;94235.66;;;16.00;100.00
6136;BME280;24008;42.664;23.372;2023-06-10T00:25:24;94366.06;;;16.80;100.00
6136;BME280;24008;42.664;23.372;2023-06-10T00:27:52;94336.09;;;16.57;100.00
6136;BME280;24008;42.664;23.372;2023-06-10T00:30:19;94367.25;;;16.77;100.00
6136;BME280;24008;42.664;23.372;2023-06-10T00:32:48;94116.97;;;15.17;100.00
6136;BME280;24008;42.664;23.372;2023-06-10T00:35:14;94290.81;;;16.27;100.00
6136;BME280;24008;42.664;23.372;2023-06-10T00:37:41;94316.47;;;16.35;100.00
6136;BME280;24008;42.664;23.372;2023-06-10T00:40:09;94274.38;;;16.07;100.00
6136;BME280;24008;42.664;23.372;2023-06-10T00:42:36;94374.75;;;16.72;100.00
6136;BME280;24008;42.664;23.372;2023-06-10T00:45:03;94370.75;;;16.70;100.00
6136;BME280;24008;42.664;23.372;2023-06-10T00:47:31;94355.84;;;16.65;100.00
6136;BME280;24008;42.664;23.372;2023-06-10T00:49:59;94348.00;;;16.58;100.00
6136;BME280;24008;42.664;23.372;2023-06-10T00:52:28;94365.97;;;16.67;100.00
6136;BME280;24008;42.664;23.372;2023-06-10T00:54:55;94364.38;;;16.66;100.00
6136;BME280;24008;42.664;23.372;2023-06-10T00:57:22;94367.47;;;16.61;100.00
6136;BME280;24008;42.664;23.372;2023-06-10T00:59:49;94347.50;;;16.42;100.00
6136;BME280;24008;42.664;23.372;2023-06-10T01:02:16;94364.38;;;16.66;100.00
6136;BME280;24008;42.664;23.372;2023-06-10T01:04:43;94264.19;;;15.99;100.00
6136;BME280;24008;42.664;23.372;2023-06-10T01:07:25;94369.78;;;16.71;100.00
6136;BME280;24008;42.664;23.372;2023-06-10T01:10:01;94349.56;;;16.53;100.00
6136;BME280;24008;42.664;23.372;2023-06-10T01:12:33;94370.75;;;16.70;100.00
6136;BME280;24008;42.664;23.372;2023-06-10T01:15:03;94374.31;;;16.69;100.00
6136;BME280;24008;42.664;23.372;2023-06-10T01:17:30;94375.91;;;16.70;100.00
6136;BME280;24008;42.664;23.372;2023-06-10T01:19:57;94321.63;;;16.35;100.00
6136;BME280;24008;42.664;23.372;2023-06-10T01:22:27;94372.72;;;16.68;100.00
6136;BME280;24008;42.664;23.372;2023-06-10T01:24:57;94366.34;;;16.64;100.00
6136;BME280;24008;42.664;23.372;2023-06-10T01:27:29;94372.94;;;16.66;100.00
6136;BME280;24008;42.664;23.372;2023-06-10T01:29:59;94377.88;;;16.68;100.00
6136;BME280;24008;42.664;23.372;2023-06-10T01:32:34;94379.28;;;16.70;100.00
6136;BME280;24008;42.664;23.372;2023-06-10T01:35:02;94367.19;;;16.71;100.00
6136;BME280;24008;42.664;23.372;2023-06-10T01:37:30;94373.75;;;16.73;100.00
6136;BME280;24008;42.664;23.372;2023-06-10T01:39:59;94373.22;;;16.78;100.00
6136;BME280;24008;42.664;23.372;2023-06-10T01:42:27;94405.75;;;16.79;100.00
6136;BME280;24008;42.664;23.372;2023-06-10T01:44:54;94205.63;;;15.65;100.00
6136;BME280;24008;42.664;23.372;2023-06-10T01:47:21;94310.94;;;16.38;100.00
6136;BME280;24008;42.664;23.372;2023-06-10T01:49:48;94333.31;;;16.59;100.00
6136;BME280;24008;42.664;23.372;2023-06-10T01:52:15;94359.31;;;16.79;100.00
6136;BME280;24008;42.664;23.372;2023-06-10T01:54:43;94365.69;;;16.83;100.00
6136;BME280;24008;42.664;23.372;2023-06-10T01:57:10;94320.25;;;16.61;100.00
6136;BME280;24008;42.664;23.372;2023-06-10T01:59:37;94361.16;;;16.85;100.00
6136;BME280;24008;42.664;23.372;2023-06-10T02:02:04;94360.16;;;16.86;100.00
6136;BME280;24008;42.664;23.372;2023-06-10T02:04:31;94317.84;;;16.59;100.00
6136;BME280;24008;42.664;23.372;2023-06-10T02:06:58;94356.16;;;16.83;100.00
6136;BME280;24008;42.664;23.372;2023-06-10T02:09:29;94354.19;;;16.85;100.00
6136;BME280;24008;42.664;23.372;2023-06-10T02:11:57;94345.81;;;16.77;100.00
6136;BME280;24008;42.664;23.372;2023-06-10T02:14:24;94354.03;;;16.87;100.00
6136;BME280;24008;42.664;23.372;2023-06-10T02:16:50;94327.13;;;16.75;100.00
6136;BME280;24008;42.664;23.372;2023-06-10T02:19:21;94349.25;;;16.90;100.00
6136;BME280;24008;42.664;23.372;2023-06-10T02:21:48;94348.09;;;16.93;100.00
6136;BME280;24008;42.664;23.372;2023-06-10T02:24:15;94343.91;;;16.92;100.00
6136;BME280;24008;42.664;23.372;2023-06-10T02:26:42;94341.13;;;16.93;100.00
6136;BME280;24008;42.664;23.372;2023-06-10T02:29:10;94332.41;;;16.95;100.00
6136;BME280;24008;42.664;23.372;2023-06-10T02:31:37;94333.22;;;16.95;100.00
6136;BME280;24008;42.664;23.372;2023-06-10T02:34:05;94329.66;;;16.96;100.00
6136;BME280;24008;42.664;23.372;2023-06-10T02:36:31;94297.34;;;16.79;100.00
6136;BME280;24008;42.664;23.372;2023-06-10T02:39:01;94333.44;;;17.00;100.00
6136;BME280;24008;42.664;23.372;2023-06-10T02:41:28;94338.38;;;16.95;100.00
6136;BME280;24008;42.664;23.372;2023-06-10T02:43:55;94331.44;;;16.96;100.00
6136;BME280;24008;42.664;23.372;2023-06-10T02:46:23;94300.56;;;16.81;100.00
6136;BME280;24008;42.664;23.372;2023-06-10T02:48:49;94299.72;;;16.74;100.00
6136;BME280;24008;42.664;23.372;2023-06-10T02:51:17;94295.78;;;16.78;100.00
6136;BME280;24008;42.664;23.372;2023-06-10T02:53:44;94314.53;;;16.93;100.00
6136;BME280;24008;42.664;23.372;2023-06-10T02:56:11;94298.22;;;16.86;100.00
6136;BME280;24008;42.664;23.372;2023-06-10T02:58:38;94315.59;;;17.05;100.00
6136;BME280;24008;42.664;23.372;2023-06-10T03:01:04;94317.81;;;17.08;100.00
6136;BME280;24008;42.664;23.372;2023-06-10T03:03:33;94321.41;;;17.14;100.00
6136;BME280;24008;42.664;23.372;2023-06-10T03:06:00;94322.44;;;17.19;100.00
6136;BME280;24008;42.664;23.372;2023-06-10T03:08:27;94291.97;;;17.02;100.00
6136;BME280;24008;42.664;23.372;2023-06-10T03:10:55;94322.66;;;17.24;100.00
6136;BME280;24008;42.664;23.372;2023-06-10T03:13:21;94327.44;;;17.27;100.00
6136;BME280;24008;42.664;23.372;2023-06-10T03:15:49;94312.72;;;17.21;100.00
6136;BME280;24008;42.664;23.372;2023-06-10T03:18:15;94326.25;;;17.30;100.00
6136;BME280;24008;42.664;23.372;2023-06-10T03:20:44;94325.44;;;17.29;100.00
6136;BME280;24008;42.664;23.372;2023-06-10T03:23:10;94334.19;;;17.28;100.00
6136;BME280;24008;42.664;23.372;2023-06-10T03:25:38;94165.81;;;16.23;100.00
6136;BME280;24008;42.664;23.372;2023-06-10T03:28:06;94290.50;;;16.92;100.00
6136;BME280;24008;42.664;23.372;2023-06-10T03:30:32;94214.13;;;16.42;100.00
6136;BME280;24008;42.664;23.372;2023-06-10T03:32:59;94342.53;;;17.24;100.00
6136;BME280;24008;42.664;23.372;2023-06-10T03:35:26;94353.97;;;17.15;100.00
6136;BME280;24008;42.664;23.372;2023-06-10T03:37:54;94346.66;;;17.18;100.00
6136;BME280;24008;42.664;23.372;2023-06-10T03:40:21;94351.78;;;17.12;100.00
6136;BME280;24008;42.664;23.372;2023-06-10T03:42:48;94349.97;;;17.06;100.00
6136;BME280;24008;42.664;23.372;2023-06-10T03:45:14;94357.53;;;17.07;100.00
6136;BME280;24008;42.664;23.372;2023-06-10T03:47:41;94326.28;;;16.68;100.00
6136;BME280;24008;42.664;23.372;2023-06-10T03:50:09;94308.00;;;16.63;100.00
6136;BME280;24008;42.664;23.372;2023-06-10T03:52:38;94338.00;;;16.70;100.00
6136;BME280;24008;42.664;23.372;2023-06-10T03:55:07;94354.38;;;16.84;100.00
6136;BME280;24008;42.664;23.372;2023-06-10T03:57:34;94334.63;;;16.70;100.00
6136;BME280;24008;42.664;23.372;2023-06-10T04:00:00;94286.97;;;16.44;100.00
6136;BME280;24008;42.664;23.372;2023-06-10T04:02:31;94350.16;;;16.76;100.00
6136;BME280;24008;42.664;23.372;2023-06-10T04:05:00;94335.84;;;16.74;100.00
6136;BME280;24008;42.664;23.372;2023-06-10T04:07:27;94354.19;;;16.85;100.00
6136;BME280;24008;42.664;23.372;2023-06-10T04:09:54;94336.41;;;16.69;100.00
6136;BME280;24008;42.664;23.372;2023-06-10T04:12:22;94305.50;;;16.54;100.00
6136;BME280;24008;42.664;23.372;2023-06-10T04:14:49;94359.78;;;16.89;100.00
6136;BME280;24008;42.664;23.372;2023-06-10T04:17:17;94359.19;;;16.87;100.00
6136;BME280;24008;42.664;23.372;2023-06-10T04:19:43;94356.53;;;16.80;100.00
6136;BME280;24008;42.664;23.372;2023-06-10T04:22:11;94362.09;;;16.77;100.00
6136;BME280;24008;42.664;23.372;2023-06-10T04:24:37;94347.63;;;16.62;100.00
6136;BME280;24008;42.664;23.372;2023-06-10T04:27:05;94365.66;;;16.76;100.00
6136;BME280;24008;42.664;23.372;2023-06-10T04:29:33;94357.31;;;16.74;100.00
6136;BME280;24008;42.664;23.372;2023-06-10T04:32:00;94359.69;;;16.76;100.00
6136;BME280;24008;42.664;23.372;2023-06-10T04:34:27;94296.63;;;16.36;100.00
6136;BME280;24008;42.664;23.372;2023-06-10T04:36:54;94372.44;;;16.84;100.00
6136;BME280;24008;42.664;23.372;2023-06-10T04:39:22;94362.94;;;16.84;100.00
6136;BME280;24008;42.664;23.372;2023-06-10T04:41:48;94365.94;;;16.88;100.00
6136;BME280;24008;42.664;23.372;2023-06-10T04:44:15;94341.06;;;16.80;100.00
6136;BME280;24008;42.664;23.372;2023-06-10T04:46:44;94359.66;;;16.97;100.00
6136;BME280;24008;42.664;23.372;2023-06-10T04:49:10;94362.66;;;17.01;100.00
6136;BME280;24008;42.664;23.372;2023-06-10T04:51:39;94307.47;;;16.74;100.00
6136;BME280;24008;42.664;23.372;2023-06-10T04:54:06;94357.16;;;17.17;100.00
6136;BME280;24008;42.664;23.372;2023-06-10T04:56:33;94355.63;;;17.22;100.00
6136;BME280;24008;42.664;23.372;2023-06-10T04:59:00;94338.53;;;17.21;100.00
6136;BME280;24008;42.664;23.372;2023-06-10T05:01:27;94293.16;;;17.06;100.00
6136;BME280;24008;42.664;23.372;2023-06-10T05:03:55;94353.00;;;17.57;100.00
6136;BME280;24008;42.664;23.372;2023-06-10T05:06:22;94314.38;;;17.42;100.00
6136;BME280;24008;42.664;23.372;2023-06-10T05:08:48;94355.41;;;17.58;100.00
6136;BME280;24008;42.664;23.372;2023-06-10T05:11:15;94342.63;;;17.44;100.00
6136;BME280;24008;42.664;23.372;2023-06-10T05:13:42;94362.59;;;17.63;100.00
6136;BME280;24008;42.664;23.372;2023-06-10T05:16:10;94386.09;;;17.68;100.00
6136;BME280;24008;42.664;23.372;2023-06-10T05:18:36;94360.06;;;17.76;100.00
6136;BME280;24008;42.664;23.372;2023-06-10T05:21:05;94353.56;;;17.87;100.00
6136;BME280;24008;42.664;23.372;2023-06-10T05:23:31;94324.91;;;17.82;100.00
6136;BME280;24008;42.664;23.372;2023-06-10T05:25:58;94361.97;;;18.09;100.00
6136;BME280;24008;42.664;23.372;2023-06-10T05:28:25;94332.72;;;18.15;100.00
6136;BME280;24008;42.664;23.372;2023-06-10T05:30:52;94351.69;;;18.35;100.00
6136;BME280;24008;42.664;23.372;2023-06-10T05:33:19;94324.59;;;18.18;100.00
6136;BME280;24008;42.664;23.372;2023-06-10T05:35:45;94359.22;;;18.36;100.00
6136;BME280;24008;42.664;23.372;2023-06-10T05:38:14;94354.25;;;18.35;100.00
6136;BME280;24008;42.664;23.372;2023-06-10T05:40:41;94360.41;;;18.27;100.00
6136;BME280;24008;42.664;23.372;2023-06-10T05:43:07;94328.53;;;18.07;100.00
6136;BME280;24008;42.664;23.372;2023-06-10T05:45:35;94358.63;;;18.28;100.00
6136;BME280;24008;42.664;23.372;2023-06-10T05:48:22;94314.59;;;18.02;100.00
6136;BME280;24008;42.664;23.372;2023-06-10T05:50:48;94335.16;;;18.23;100.00
6136;BME280;24008;42.664;23.372;2023-06-10T05:53:16;94366.00;;;18.51;100.00
6136;BME280;24008;42.664;23.372;2023-06-10T05:55:43;94368.44;;;18.65;100.00
6136;BME280;24008;42.664;23.372;2023-06-10T05:58:10;94345.75;;;18.67;100.00
6136;BME280;24008;42.664;23.372;2023-06-10T06:00:38;94368.81;;;19.08;100.00
6136;BME280;24008;42.664;23.372;2023-06-10T06:03:06;94335.53;;;19.19;100.00
6136;BME280;24008;42.664;23.372;2023-06-10T06:05:33;94372.16;;;19.55;100.00
6136;BME280;24008;42.664;23.372;2023-06-10T06:08:01;94373.47;;;19.71;100.00
6136;BME280;24008;42.664;23.372;2023-06-10T06:10:29;94371.88;;;19.76;100.00
6136;BME280;24008;42.664;23.372;2023-06-10T06:12:56;94286.09;;;19.14;100.00
6136;BME280;24008;42.664;23.372;2023-06-10T06:15:23;94372.06;;;19.75;100.00
6136;BME280;24008;42.664;23.372;2023-06-10T06:17:50;94376.66;;;19.73;100.00
6136;BME280;24008;42.664;23.372;2023-06-10T06:20:18;94346.19;;;19.62;100.00
6136;BME280;24008;42.664;23.372;2023-06-10T06:22:45;94325.69;;;19.54;100.00
6136;BME280;24008;42.664;23.372;2023-06-10T06:25:12;94379.81;;;19.82;100.00
6136;BME280;24008;42.664;23.372;2023-06-10T06:27:40;94331.63;;;19.67;100.00
6136;BME280;24008;42.664;23.372;2023-06-10T06:30:07;94373.75;;;19.94;100.00
6136;BME280;24008;42.664;23.372;2023-06-10T06:32:34;94368.34;;;20.02;100.00
6136;BME280;24008;42.664;23.372;2023-06-10T06:35:01;94372.09;;;20.13;100.00
6136;BME280;24008;42.664;23.372;2023-06-10T06:37:28;94345.97;;;20.08;99.09
6136;BME280;24008;42.664;23.372;2023-06-10T06:39:55;94348.06;;;20.24;98.40
6136;BME280;24008;42.664;23.372;2023-06-10T06:42:21;94342.84;;;20.37;97.62
6136;BME280;24008;42.664;23.372;2023-06-10T06:44:49;94370.34;;;20.95;95.32
6136;BME280;24008;42.664;23.372;2023-06-10T06:47:16;94368.06;;;21.30;91.57
6136;BME280;24008;42.664;23.372;2023-06-10T06:49:45;94354.25;;;21.29;90.08
6136;BME280;24008;42.664;23.372;2023-06-10T06:52:12;94369.59;;;21.37;90.07
6136;BME280;24008;42.664;23.372;2023-06-10T06:54:39;94374.47;;;21.27;90.45
6136;BME280;24008;42.664;23.372;2023-06-10T06:57:06;94142.00;;;19.82;90.23
6136;BME280;24008;42.664;23.372;2023-06-10T06:59:33;94342.16;;;21.16;90.61
6136;BME280;24008;42.664;23.372;2023-06-10T07:02:02;94330.63;;;21.12;90.34
6136;BME280;24008;42.664;23.372;2023-06-10T07:04:28;94336.06;;;21.29;88.30
6136;BME280;24008;42.664;23.372;2023-06-10T07:06:56;94370.53;;;21.43;84.33
6136;BME280;24008;42.664;23.372;2023-06-10T07:09:22;94363.94;;;21.77;83.00
6136;BME280;24008;42.664;23.372;2023-06-10T07:11:49;94367.41;;;21.89;83.16
6136;BME280;24008;42.664;23.372;2023-06-10T07:14:16;94320.16;;;21.74;81.89
6136;BME280;24008;42.664;23.372;2023-06-10T07:16:43;94365.06;;;22.17;81.50
6136;BME280;24008;42.664;23.372;2023-06-10T07:19:12;94367.59;;;22.36;81.06
6136;BME280;24008;42.664;23.372;2023-06-10T07:21:39;94358.16;;;22.53;80.06
6136;BME280;24008;42.664;23.372;2023-06-10T07:24:06;94358.06;;;22.71;78.00
6136;BME280;24008;42.664;23.372;2023-06-10T07:26:32;94353.66;;;22.72;75.25
6136;BME280;24008;42.664;23.372;2023-06-10T07:28:59;94326.31;;;22.51;75.39
6136;BME280;24008;42.664;23.372;2023-06-10T07:31:26;94355.63;;;22.88;75.46
6136;BME280;24008;42.664;23.372;2023-06-10T07:33:53;94359.50;;;23.20;75.57
6136;BME280;24008;42.664;23.372;2023-06-10T07:36:21;94357.66;;;23.67;71.28
6136;BME280;24008;42.664;23.372;2023-06-10T07:38:48;94349.28;;;23.94;70.57
6136;BME280;24008;42.664;23.372;2023-06-10T07:41:15;94349.34;;;23.82;69.25
6136;BME280;24008;42.664;23.372;2023-06-10T07:43:43;94288.28;;;23.31;68.49
6136;BME280;24008;42.664;23.372;2023-06-10T07:46:10;94251.59;;;23.61;67.22
6136;BME280;24008;42.664;23.372;2023-06-10T07:48:37;94338.09;;;25.00;66.01
6136;BME280;24008;42.664;23.372;2023-06-10T07:51:03;94375.13;;;26.08;58.61
6136;BME280;24008;42.664;23.372;2023-06-10T07:53:32;94345.28;;;25.87;57.34
6136;BME280;24008;42.664;23.372;2023-06-10T07:55:58;94355.16;;;26.02;57.19
6136;BME280;24008;42.664;23.372;2023-06-10T07:58:25;94305.44;;;25.85;57.60
6136;BME280;24008;42.664;23.372;2023-06-10T08:00:52;94354.94;;;26.08;56.58
6136;BME280;24008;42.664;23.372;2023-06-10T08:03:20;94304.41;;;26.08;56.05
6136;BME280;24008;42.664;23.372;2023-06-10T08:05:47;94355.25;;;26.12;56.64
6136;BME280;24008;42.664;23.372;2023-06-10T08:08:14;94359.50;;;25.53;56.78
6136;BME280;24008;42.664;23.372;2023-06-10T08:10:42;94328.47;;;25.61;60.70
6136;BME280;24008;42.664;23.372;2023-06-10T08:13:09;94352.19;;;26.74;57.77
6136;BME280;24008;42.664;23.372;2023-06-10T08:15:36;94354.09;;;27.52;52.00
6136;BME280;24008;42.664;23.372;2023-06-10T08:18:03;94324.09;;;27.95;49.22
6136;BME280;24008;42.664;23.372;2023-06-10T08:20:30;94322.63;;;28.30;44.67
6136;BME280;24008;42.664;23.372;2023-06-10T08:22:57;94254.50;;;28.08;43.68
6136;BME280;24008;42.664;23.372;2023-06-10T08:25:24;94337.38;;;28.77;44.63
6136;BME280;24008;42.664;23.372;2023-06-10T08:28:13;94343.69;;;29.42;41.54
6136;BME280;24008;42.664;23.372;2023-06-10T08:30:40;94336.00;;;30.30;39.68
6136;BME280;24008;42.664;23.372;2023-06-10T08:33:06;94316.91;;;29.94;39.49
6136;BME280;24008;42.664;23.372;2023-06-10T08:35:33;94339.56;;;30.44;39.34
6136;BME280;24008;42.664;23.372;2023-06-10T08:38:00;94324.44;;;30.65;39.41
6136;BME280;24008;42.664;23.372;2023-06-10T08:40:27;94302.97;;;30.37;38.22
6136;BME280;24008;42.664;23.372;2023-06-10T08:43:00;94327.78;;;30.75;37.12
6136;BME280;24008;42.664;23.372;2023-06-10T08:45:35;94306.00;;;30.60;38.08
6136;BME280;24008;42.664;23.372;2023-06-10T08:48:03;94327.47;;;30.43;38.51
6136;BME280;24008;42.664;23.372;2023-06-10T08:50:33;94298.50;;;30.33;40.62
6136;BME280;24008;42.664;23.372;2023-06-10T08:53:02;94324.72;;;30.58;40.39
6136;BME280;24008;42.664;23.372;2023-06-10T08:55:32;94315.84;;;30.83;40.10
6136;BME280;24008;42.664;23.372;2023-06-10T08:57:59;94301.66;;;30.74;37.58
6136;BME280;24008;42.664;23.372;2023-06-10T09:00:26;94316.38;;;30.80;40.63
6136;BME280;24008;42.664;23.372;2023-06-10T09:02:55;94315.16;;;30.67;39.67
6136;BME280;24008;42.664;23.372;2023-06-10T09:05:22;94309.78;;;30.83;38.40
6136;BME280;24008;42.664;23.372;2023-06-10T09:07:51;94311.53;;;31.26;35.26
6136;BME280;24008;42.664;23.372;2023-06-10T09:10:19;94310.06;;;31.63;34.11
6136;BME280;24008;42.664;23.372;2023-06-10T09:12:46;94265.84;;;31.26;34.89
6136;BME280;24008;42.664;23.372;2023-06-10T09:15:13;94304.91;;;31.76;34.74
6136;BME280;24008;42.664;23.372;2023-06-10T09:17:42;94232.78;;;31.28;35.96
6136;BME280;24008;42.664;23.372;2023-06-10T09:20:11;94299.19;;;32.12;33.92
6136;BME280;24008;42.664;23.372;2023-06-10T09:22:38;94294.56;;;32.23;33.76
6136;BME280;24008;42.664;23.372;2023-06-10T09:25:07;94244.72;;;32.11;33.55
6136;BME280;24008;42.664;23.372;2023-06-10T09:27:44;94271.53;;;32.23;34.36
6136;BME280;24008;42.664;23.372;2023-06-10T09:30:24;94293.47;;;31.81;38.22
6136;BME280;24008;42.664;23.372;2023-06-10T09:32:52;94270.00;;;31.32;37.10
6136;BME280;24008;42.664;23.372;2023-06-10T09:35:22;94292.91;;;31.07;37.87
6136;BME280;24008;42.664;23.372;2023-06-10T09:37:51;94109.38;;;30.15;39.52
6136;BME280;24008;42.664;23.372;2023-06-10T09:40:18;94202.88;;;30.85;38.71
6136;BME280;24008;42.664;23.372;2023-06-10T09:43:03;94287.88;;;31.88;35.04
6136;BME280;24008;42.664;23.372;2023-06-10T09:45:31;94283.19;;;32.22;35.89
6136;BME280;24008;42.664;23.372;2023-06-10T09:47:58;94282.22;;;31.94;34.57
6136;BME280;24008;42.664;23.372;2023-06-10T09:50:27;94263.59;;;31.62;34.39
6136;BME280;24008;42.664;23.372;2023-06-10T09:52:54;94292.41;;;31.58;33.23
6136;BME280;24008;42.664;23.372;2023-06-10T09:55:21;94279.56;;;31.94;33.37
6136;BME280;24008;42.664;23.372;2023-06-10T09:57:49;94276.63;;;31.77;34.38
6136;BME280;24008;42.664;23.372;2023-06-10T10:00:16;94275.94;;;32.28;35.74
6136;BME280;24008;42.664;23.372;2023-06-10T10:02:45;94244.59;;;32.21;32.16
6136;BME280;24008;42.664;23.372;2023-06-10T10:05:13;94248.94;;;32.12;33.26
6136;BME280;24008;42.664;23.372;2023-06-10T10:07:42;94253.09;;;31.99;33.18
6136;BME280;24008;42.664;23.372;2023-06-10T10:10:10;94171.44;;;30.89;33.23
6136;BME280;24008;42.664;23.372;2023-06-10T10:12:38;94239.53;;;30.58;33.92
6136;BME280;24008;42.664;23.372;2023-06-10T10:15:06;94268.56;;;30.19;34.12
6136;BME280;24008;42.664;23.372;2023-06-10T10:17:34;94252.06;;;30.37;36.48
6136;BME280;24008;42.664;23.372;2023-06-10T10:20:05;94126.66;;;29.58;35.64
6136;BME280;24008;42.664;23.372;2023-06-10T10:22:38;94234.78;;;30.21;36.11
6136;BME280;24008;42.664;23.372;2023-06-10T10:25:10;94171.19;;;29.93;35.71
6136;BME280;24008;42.664;23.372;2023-06-10T10:27:43;94249.88;;;30.83;36.22
6136;BME280;24008;42.664;23.372;2023-06-10T10:30:11;94247.84;;;30.75;36.87
6136;BME280;24008;42.664;23.372;2023-06-10T10:32:44;94248.66;;;30.70;36.48
6136;BME280;24008;42.664;23.372;2023-06-10T10:35:17;94243.25;;;30.57;37.17
6136;BME280;24008;42.664;23.372;2023-06-10T10:37:44;94226.38;;;30.53;35.48
6136;BME280;24008;42.664;23.372;2023-06-10T10:40:13;94222.66;;;30.20;37.17
6136;BME280;24008;42.664;23.372;2023-06-10T10:42:41;94202.09;;;29.78;38.79
6136;BME280;24008;42.664;23.372;2023-06-10T10:45:09;94244.31;;;29.62;39.07
6136;BME280;24008;42.664;23.372;2023-06-10T10:47:36;94217.44;;;28.76;43.65
6136;BME280;24008;42.664;23.372;2023-06-10T10:50:13;94211.09;;;27.80;41.38
6136;BME280;24008;42.664;23.372;2023-06-10T10:52:52;94195.66;;;27.21;42.29
6136;BME280;24008;42.664;23.372;2023-06-10T10:55:22;94232.19;;;27.33;43.67
6136;BME280;24008;42.664;23.372;2023-06-10T10:57:55;94226.41;;;27.31;44.88
6136;BME280;24008;42.664;23.372;2023-06-10T11:00:30;94229.34;;;27.45;42.44
6136;BME280;24008;42.664;23.372;2023-06-10T11:02:59;94221.59;;;27.65;42.46
6136;BME280;24008;42.664;23.372;2023-06-10T11:05:37;94140.06;;;27.24;41.64
6136;BME280;24008;42.664;23.372;2023-06-10T11:08:05;94166.31;;;27.24;42.26
6136;BME280;24008;42.664;23.372;2023-06-10T11:10:35;94152.72;;;26.80;41.73
6136;BME280;24008;42.664;23.372;2023-06-10T11:13:07;94152.44;;;26.82;41.00
6136;BME280;24008;42.664;23.372;2023-06-10T11:15:38;94149.44;;;27.05;41.19
6136;BME280;24008;42.664;23.372;2023-06-10T11:18:14;94198.91;;;27.39;40.87
6136;BME280;24008;42.664;23.372;2023-06-10T11:21:00;94200.69;;;27.28;41.54
6136;BME280;24008;42.664;23.372;2023-06-10T11:23:34;94106.44;;;26.54;40.75
6136;BME280;24008;42.664;23.372;2023-06-10T11:26:32;94144.91;;;26.43;41.49
6136;BME280;24008;42.664;23.372;2023-06-10T11:29:07;94201.59;;;26.54;42.41
6136;BME280;24008;42.664;23.372;2023-06-10T11:31:49;94196.97;;;26.72;42.04
6136;BME280;24008;42.664;23.372;2023-06-10T11:34:24;94156.56;;;26.63;41.67
6136;BME280;24008;42.664;23.372;2023-06-10T11:36:53;94183.69;;;26.88;41.29
6136;BME280;24008;42.664;23.372;2023-06-10T11:39:20;94111.06;;;26.37;41.56
6136;BME280;24008;42.664;23.372;2023-06-10T11:41:50;94176.13;;;26.92;43.15
6136;BME280;24008;42.664;23.372;2023-06-10T11:44:18;94131.47;;;26.77;42.37
6136;BME280;24008;42.664;23.372;2023-06-10T11:46:47;94173.63;;;27.22;42.84
6136;BME280;24008;42.664;23.372;2023-06-10T11:49:14;94035.31;;;26.35;44.11
6136;BME280;24008;42.664;23.372;2023-06-10T11:51:41;93952.81;;;25.86;43.86
6136;BME280;24008;42.664;23.372;2023-06-10T11:54:14;94167.25;;;26.98;42.44
6136;BME280;24008;42.664;23.372;2023-06-10T11:56:42;94166.44;;;26.98;42.01
6136;BME280;24008;42.664;23.372;2023-06-10T11:59:10;94171.53;;;27.14;41.80
6136;BME280;24008;42.664;23.372;2023-06-10T12:01:40;94170.25;;;27.27;40.91
6136;BME280;24008;42.664;23.372;2023-06-10T12:04:09;94155.81;;;27.30;41.01
6136;BME280;24008;42.664;23.372;2023-06-10T12:06:41;94171.59;;;27.40;39.94
6136;BME280;24008;42.664;23.372;2023-06-10T12:09:14;94118.75;;;27.06;40.11
6136;BME280;24008;42.664;23.372;2023-06-10T12:11:42;94167.38;;;27.34;39.19
6136;BME280;24008;42.664;23.372;2023-06-10T12:14:11;94140.31;;;27.23;39.30
6136;BME280;24008;42.664;23.372;2023-06-10T12:16:38;94165.56;;;27.39;38.65
6136;BME280;24008;42.664;23.372;2023-06-10T12:19:05;94115.31;;;27.00;39.14
6136;BME280;24008;42.664;23.372;2023-06-10T12:21:33;94155.31;;;27.38;38.82
6136;BME280;24008;42.664;23.372;2023-06-10T12:24:05;94156.38;;;27.42;38.82
6136;BME280;24008;42.664;23.372;2023-06-10T12:26:40;94138.81;;;27.52;39.56
6136;BME280;24008;42.664;23.372;2023-06-10T12:29:17;94147.56;;;27.93;39.08
6136;BME280;24008;42.664;23.372;2023-06-10T12:31:58;94159.16;;;28.23;38.25
6136;BME280;24008;42.664;23.372;2023-06-10T12:34:30;94123.66;;;28.10;37.22
6136;BME280;24008;42.664;23.372;2023-06-10T12:36:57;94152.81;;;27.93;35.11
6136;BME280;24008;42.664;23.372;2023-06-10T12:39:24;94156.44;;;27.67;36.75
6136;BME280;24008;42.664;23.372;2023-06-10T12:41:51;94142.78;;;27.60;37.32
6136;BME280;24008;42.664;23.372;2023-06-10T12:44:28;94057.13;;;27.03;36.80
6136;BME280;24008;42.664;23.372;2023-06-10T12:46:56;94040.56;;;26.98;38.84
6136;BME280;24008;42.664;23.372;2023-06-10T12:49:23;93942.03;;;26.29;39.02
6136;BME280;24008;42.664;23.372;2023-06-10T12:51:50;94136.47;;;27.51;40.63
6136;BME280;24008;42.664;23.372;2023-06-10T12:54:17;94135.72;;;27.71;37.25
6136;BME280;24008;42.664;23.372;2023-06-10T12:56:44;94136.00;;;27.74;35.73
6136;BME280;24008;42.664;23.372;2023-06-10T12:59:11;94102.59;;;27.54;36.90
6136;BME280;24008;42.664;23.372;2023-06-10T13:01:39;94142.81;;;27.75;40.70